Time;durP1;ratioP1;P1;durP2;ratioP2;P2;SDS_P1;SDS_P2;PMS_P1;PMS_P2;Temp;Humidity;BMP_temperature;BMP_pressure;BME280_temperature;BME280_humidity;BME280_pressure;Samples;Min_cycle;Max_cycle;Signal;HPM_P1;HPM_P2
2023/05/24 00:00:11;;;;;;;12.70;5.00;;;;;;;3.47;100.00;102263.16;10471895;28;20102;-81
2023/05/24 00:05:13;;;;;;;11.82;5.93;;;;;;;3.37;100.00;102257.81;10462963;28;20037;-81
2023/05/24 00:10:14;;;;;;;9.38;4.13;;;;;;;3.32;100.00;102265.16;10436442;28;20824;-81
2023/05/24 00:15:15;;;;;;;15.90;7.40;;;;;;;3.31;100.00;102273.66;10443926;28;20049;-79
2023/05/24 00:20:15;;;;;;;14.10;4.03;;;;;;;3.28;100.00;102269.84;10483075;28;20075;-82
2023/05/24 00:25:16;;;;;;;21.45;6.70;;;;;;;3.27;100.00;102270.59;10457388;28;20040;-82
2023/05/24 00:30:16;;;;;;;21.55;6.13;;;;;;;3.36;100.00;102262.09;10478514;28;20037;-81
2023/05/24 00:35:17;;;;;;;13.60;5.55;;;;;;;3.41;100.00;102259.94;10482060;28;20032;-82
2023/05/24 00:40:17;;;;;;;12.48;6.53;;;;;;;3.30;100.00;102256.31;10489184;28;20119;-82
2023/05/24 00:45:18;;;;;;;16.15;5.45;;;;;;;3.22;100.00;102250.38;10471524;28;20036;-82
2023/05/24 00:50:19;;;;;;;22.60;7.72;;;;;;;3.13;100.00;102254.63;10487926;28;20029;-81
2023/05/24 00:55:20;;;;;;;17.83;7.43;;;;;;;3.10;100.00;102251.72;10490245;28;20033;-82
2023/05/24 01:00:21;;;;;;;17.83;5.72;;;;;;;3.01;100.00;102251.72;10474874;28;20033;-81
2023/05/24 01:05:22;;;;;;;12.95;5.35;;;;;;;3.07;100.00;102257.53;10444367;28;20041;-82
2023/05/24 01:10:41;;;;;;;8.33;4.73;;;;;;;2.98;100.00;102259.19;10400832;28;20041;-81
2023/05/24 01:15:47;;;;;;;14.52;5.10;;;;;;;2.89;100.00;102253.09;10490539;28;20044;-82
2023/05/24 01:20:48;;;;;;;16.83;7.30;;;;;;;2.81;100.00;102247.13;10489157;28;20040;-81
2023/05/24 01:26:00;;;;;;;14.32;7.07;;;;;;;2.81;100.00;102259.16;10469022;28;20127;-79
2023/05/24 01:31:00;;;;;;;22.50;7.30;;;;;;;2.82;100.00;102260.97;10499509;28;20040;-79
2023/05/24 01:36:01;;;;;;;17.40;6.90;;;;;;;2.75;100.00;102252.59;10517652;28;20067;-81
2023/05/24 01:41:29;;;;;;;13.55;4.90;;;;;;;2.67;100.00;102247.41;10485084;28;20515;-81
2023/05/24 01:46:36;;;;;;;12.60;5.78;;;;;;;2.58;100.00;102239.63;10484176;28;20523;-81
2023/05/24 01:52:00;;;;;;;19.30;7.28;;;;;;;2.68;100.00;102239.81;10478988;28;20047;-82
2023/05/24 01:57:01;;;;;;;23.10;7.18;;;;;;;2.66;100.00;102245.56;10502776;28;20040;-80
2023/05/24 02:02:01;;;;;;;19.05;7.95;;;;;;;2.65;100.00;102242.09;10468935;28;20051;-82
2023/05/24 02:07:02;;;;;;;8.95;5.85;;;;;;;2.52;100.00;102246.75;10469265;28;20047;-82
2023/05/24 02:12:03;;;;;;;15.35;7.18;;;;;;;2.41;100.00;102237.91;10485073;28;20442;-81
2023/05/24 02:17:04;;;;;;;23.05;8.55;;;;;;;2.34;100.00;102233.78;10486291;28;20047;-82
2023/05/24 02:22:06;;;;;;;17.80;8.50;;;;;;;2.39;100.00;102236.81;10485002;28;20044;-82
2023/05/24 02:27:06;;;;;;;21.77;8.67;;;;;;;2.30;100.00;102231.63;10482057;28;20804;-81
2023/05/24 02:32:07;;;;;;;14.85;7.55;;;;;;;2.28;100.00;102226.28;10483701;28;20057;-81
2023/05/24 02:37:07;;;;;;;22.35;6.93;;;;;;;2.23;100.00;102230.06;10466275;28;20036;-81
2023/05/24 02:42:08;;;;;;;20.27;6.40;;;;;;;2.19;100.00;102236.63;10493781;28;20127;-81
2023/05/24 02:47:08;;;;;;;19.52;9.13;;;;;;;2.17;100.00;102242.34;10445132;28;20079;-82
2023/05/24 02:52:09;;;;;;;14.77;7.43;;;;;;;2.10;100.00;102233.06;10441678;28;20121;-81
2023/05/24 02:57:10;;;;;;;21.92;7.07;;;;;;;2.11;100.00;102237.50;10426695;28;20071;-81
2023/05/24 03:02:14;;;;;;;13.77;7.70;;;;;;;2.05;100.00;102236.84;10443605;28;20044;-81
2023/05/24 03:07:14;;;;;;;11.43;6.50;;;;;;;1.91;100.00;102232.81;10442176;28;20033;-81
2023/05/24 03:12:15;;;;;;;21.80;9.02;;;;;;;1.76;100.00;102222.72;10443070;28;20035;-81
2023/05/24 03:17:15;;;;;;;27.02;11.20;;;;;;;1.85;100.00;102222.78;10441877;28;20124;-82
2023/05/24 03:22:16;;;;;;;20.10;8.07;;;;;;;1.86;100.00;102228.84;10441966;28;20548;-81
2023/05/24 03:27:16;;;;;;;16.98;8.23;;;;;;;1.80;100.00;102234.28;10440454;28;20498;-81
2023/05/24 03:32:17;;;;;;;16.35;8.30;;;;;;;1.70;100.00;102240.13;10441814;28;20102;-81
2023/05/24 03:37:17;;;;;;;22.65;9.52;;;;;;;1.70;100.00;102246.97;10431864;28;20144;-81
2023/05/24 03:42:18;;;;;;;19.40;8.43;;;;;;;1.79;100.00;102234.13;10440989;28;20182;-81
2023/05/24 03:47:18;;;;;;;14.70;7.90;;;;;;;1.92;100.00;102249.25;10440689;28;20469;-80
2023/05/24 03:52:19;;;;;;;21.88;9.35;;;;;;;1.92;100.00;102249.25;10438389;28;20060;-81
2023/05/24 03:57:19;;;;;;;16.85;9.57;;;;;;;1.96;100.00;102241.94;10416945;28;20382;-80
2023/05/24 04:02:20;;;;;;;27.60;11.25;;;;;;;2.11;100.00;102237.50;10441877;28;20052;-82
2023/05/24 04:07:23;;;;;;;21.48;9.38;;;;;;;2.13;100.00;102243.72;10438537;28;20039;-82
2023/05/24 04:12:23;;;;;;;18.77;9.82;;;;;;;2.22;100.00;102246.34;10478424;28;20032;-81
2023/05/24 04:17:25;;;;;;;19.70;9.38;;;;;;;2.32;100.00;102250.81;10477353;28;20053;-81
2023/05/24 04:22:26;;;;;;;15.30;9.15;;;;;;;2.38;100.00;102261.75;10489409;28;20496;-81
2023/05/24 04:27:26;;;;;;;17.30;10.48;;;;;;;2.47;100.00;102259.19;10486483;28;20047;-81
2023/05/24 04:32:29;;;;;;;20.75;8.95;;;;;;;2.70;100.00;102256.41;10477721;28;20387;-81
2023/05/24 04:37:30;;;;;;;15.10;8.90;;;;;;;3.06;100.00;102247.00;10455838;28;20487;-82
2023/05/24 04:42:31;;;;;;;15.87;8.83;;;;;;;3.13;100.00;102249.44;10468235;28;20043;-81
2023/05/24 04:47:31;;;;;;;22.90;10.13;;;;;;;3.18;100.00;102245.66;10485549;28;20060;-81
2023/05/24 04:52:32;;;;;;;17.63;10.43;;;;;;;3.22;100.00;102249.47;10447342;28;20887;-81
2023/05/24 04:57:32;;;;;;;23.80;9.60;;;;;;;3.32;100.00;102249.63;10482268;28;20056;-80
2023/05/24 05:02:33;;;;;;;16.00;9.70;;;;;;;3.56;100.00;102252.81;10488899;28;20039;-85
2023/05/24 05:07:33;;;;;;;21.88;8.77;;;;;;;3.79;100.00;102259.31;10472400;28;20033;-86
2023/05/24 05:12:34;;;;;;;17.52;10.05;;;;;;;4.28;100.00;102257.03;10495709;28;20064;-83
2023/05/24 05:17:35;;;;;;;27.60;12.80;;;;;;;5.10;100.00;102255.19;10479232;28;20153;-85
2023/05/24 05:22:35;;;;;;;19.67;8.90;;;;;;;6.04;100.00;102247.94;10466282;28;20048;-81
2023/05/24 05:27:36;;;;;;;15.05;6.38;;;;;;;6.86;100.00;102257.56;10486504;28;20032;-77
2023/05/24 05:32:36;;;;;;;20.40;6.97;;;;;;;7.58;100.00;102257.47;10447650;28;20066;-82
2023/05/24 05:37:37;;;;;;;14.25;6.05;;;;;;;8.03;100.00;102232.41;10480413;28;20068;-82
2023/05/24 05:42:37;;;;;;;14.05;6.68;;;;;;;8.88;100.00;102213.69;10488853;28;20119;-83
2023/05/24 05:47:39;;;;;;;18.33;6.32;;;;;;;9.92;100.00;102192.56;10496796;28;20190;-82
2023/05/24 05:52:40;;;;;;;11.10;6.95;;;;;;;10.25;100.00;102186.19;10476870;28;20479;-79
2023/05/24 05:57:40;;;;;;;15.13;7.07;;;;;;;10.98;100.00;102190.25;10475349;28;20068;-81
2023/05/24 06:02:41;;;;;;;10.02;5.60;;;;;;;12.35;100.00;102194.66;10473952;28;20060;-78
2023/05/24 06:07:41;;;;;;;18.27;7.90;;;;;;;12.14;100.00;102199.44;10475839;28;20044;-80
2023/05/24 06:12:42;;;;;;;18.08;7.72;;;;;;;13.31;100.00;102189.81;10468707;28;20525;-81
2023/05/24 06:17:42;;;;;;;16.00;6.22;;;;;;;13.90;100.00;102201.03;10486476;28;20083;-81
2023/05/24 06:22:44;;;;;;;14.18;4.50;;;;;;;13.99;100.00;102200.59;10490787;28;20127;-81
2023/05/24 06:27:45;;;;;;;16.05;5.63;;;;;;;15.39;100.00;102200.84;10484313;28;20032;-79
2023/05/24 06:32:45;;;;;;;20.45;6.88;;;;;;;15.19;100.00;102204.22;10468045;28;20068;-85
2023/05/24 06:37:46;;;;;;;15.40;5.80;;;;;;;14.73;100.00;102202.75;10498006;28;20119;-86
2023/05/24 06:42:46;;;;;;;23.65;7.38;;;;;;;13.93;100.00;102210.78;10473351;28;20472;-85
2023/05/24 06:47:47;;;;;;;15.05;6.63;;;;;;;13.73;100.00;102213.22;10483682;28;20120;-84
2023/05/24 06:52:47;;;;;;;18.55;7.28;;;;;;;12.92;100.00;102205.94;10482908;28;20433;-83
2023/05/24 06:57:48;;;;;;;19.67;6.32;;;;;;;13.28;100.00;102194.88;10486271;28;20040;-83
2023/05/24 07:02:48;;;;;;;16.02;5.65;;;;;;;15.71;100.00;102198.84;10477303;28;20048;-83
2023/05/24 07:07:49;;;;;;;21.00;8.02;;;;;;;17.30;100.00;102204.13;10473954;28;20480;-83
2023/05/24 07:12:49;;;;;;;18.47;6.70;;;;;;;17.34;98.13;102215.75;10466805;28;20032;-82
2023/05/24 07:17:50;;;;;;;21.10;7.78;;;;;;;14.71;100.00;102228.13;10481523;28;20043;-81
2023/05/24 07:22:51;;;;;;;38.70;8.80;;;;;;;14.01;100.00;102238.44;10478568;28;20050;-83
2023/05/24 07:27:52;;;;;;;16.33;6.73;;;;;;;15.23;100.00;102222.91;10480351;28;20045;-84
2023/05/24 07:32:52;;;;;;;15.57;7.20;;;;;;;19.08;91.39;102223.19;10475894;28;20040;-84
2023/05/24 07:37:53;;;;;;;16.73;4.83;;;;;;;16.96;92.22;102218.53;10475999;28;20091;-82
2023/05/24 07:42:53;;;;;;;14.80;6.45;;;;;;;15.06;100.00;102227.34;10477533;28;20043;-83
2023/05/24 07:47:54;;;;;;;14.23;6.00;;;;;;;14.72;100.00;102216.75;10473742;28;20041;-83
2023/05/24 07:52:57;;;;;;;19.35;7.38;;;;;;;13.67;100.00;102227.78;10491792;28;20127;-83
2023/05/24 07:57:58;;;;;;;17.15;7.28;;;;;;;15.65;100.00;102219.66;10466417;28;20144;-82
2023/05/24 08:02:59;;;;;;;14.77;5.53;;;;;;;19.69;92.50;102217.19;10443222;28;20034;-80
2023/05/24 08:07:59;;;;;;;13.47;4.93;;;;;;;19.59;79.62;102223.06;10424970;28;20047;-79
2023/05/24 08:13:00;;;;;;;30.67;6.33;;;;;;;20.05;78.75;102216.56;10437521;28;20171;-80
2023/05/24 08:18:00;;;;;;;14.57;6.40;;;;;;;20.18;70.24;102215.13;10442410;28;20175;-79
2023/05/24 08:23:04;;;;;;;11.50;6.17;;;;;;;17.36;78.28;102216.72;10456472;28;20222;-81
2023/05/24 08:28:04;;;;;;;13.15;5.60;;;;;;;15.93;90.28;102225.38;10451233;28;20186;-82
2023/05/24 08:33:05;;;;;;;18.52;6.43;;;;;;;15.71;95.55;102217.34;10483406;28;20032;-80
2023/05/24 08:38:06;;;;;;;14.63;6.32;;;;;;;15.88;100.00;102217.25;10496255;28;20165;-80
2023/05/24 08:43:10;;;;;;;24.83;6.80;;;;;;;16.94;92.98;102209.63;10478086;28;20040;-81
2023/05/24 08:48:12;;;;;;;19.02;6.15;;;;;;;19.29;89.62;102205.28;10496927;28;20041;-80
2023/05/24 08:53:13;;;;;;;;;;;;;;;22.54;66.94;102191.56;10466587;28;20074;-80
2023/05/24 08:58:13;;;;;;;22.30;6.15;;;;;;;22.26;71.48;102193.66;10483402;28;20381;-80
2023/05/24 09:03:14;;;;;;;18.87;6.70;;;;;;;21.10;64.12;102199.91;10471670;28;20040;-80
2023/05/24 09:08:16;;;;;;;11.90;6.13;;;;;;;21.27;66.28;102196.78;10505783;28;20072;-80
2023/05/24 09:13:17;;;;;;;18.85;5.97;;;;;;;22.71;62.24;102191.00;10502817;28;20115;-80
2023/05/24 09:18:17;;;;;;;14.20;4.90;;;;;;;21.75;62.35;102195.28;10504953;28;20181;-80
2023/05/24 09:23:18;;;;;;;14.17;5.27;;;;;;;20.53;64.77;102191.31;10489114;28;20032;-80
2023/05/24 09:28:20;;;;;;;8.57;5.37;;;;;;;19.43;65.49;102190.72;10488554;28;20041;-80
2023/05/24 09:33:21;;;;;;;17.58;6.90;;;;;;;19.89;66.18;102185.03;10487565;28;20040;-80
2023/05/24 09:38:21;;;;;;;14.33;4.73;;;;;;;22.30;61.59;102167.97;10463714;28;20033;-80
2023/05/24 09:43:22;;;;;;;11.97;4.63;;;;;;;20.52;60.55;102178.88;10514927;28;20051;-81
2023/05/24 09:48:22;;;;;;;12.03;5.90;;;;;;;19.86;64.24;102175.19;10487334;28;20123;-80
2023/05/24 09:53:23;;;;;;;8.97;4.80;;;;;;;19.07;65.60;102173.63;10486313;28;20531;-80
2023/05/24 09:58:27;;;;;;;14.63;4.63;;;;;;;17.84;68.14;102170.06;10476995;28;20055;-80
2023/05/24 10:03:28;;;;;;;14.52;6.07;;;;;;;21.43;68.63;102150.13;10492612;28;20053;-78
2023/05/24 10:08:28;;;;;;;23.40;6.63;;;;;;;22.67;56.58;102146.44;10501815;28;20529;-80
2023/05/24 10:13:29;;;;;;;17.03;7.13;;;;;;;20.29;62.11;102157.00;10468641;28;20112;-81
2023/05/24 10:18:30;;;;;;;13.20;5.07;;;;;;;19.72;66.05;102160.59;10460987;28;20037;-80
2023/05/24 10:23:32;;;;;;;9.50;4.97;;;;;;;20.24;63.91;102158.63;10472321;28;20267;-81
2023/05/24 10:28:51;;;;;;;13.73;6.20;;;;;;;22.29;57.10;102158.19;10453107;28;20373;-80
2023/05/24 10:33:52;;;;;;;12.32;4.60;;;;;;;22.32;59.09;102155.56;10452545;28;20068;-80
2023/05/24 10:38:53;;;;;;;15.17;5.40;;;;;;;21.54;60.75;102166.34;10456558;28;20126;-82
2023/05/24 10:43:53;;;;;;;17.33;5.90;;;;;;;20.01;63.48;102166.81;10457267;28;20040;-81
2023/05/24 10:49:00;;;;;;;13.70;4.97;;;;;;;19.61;64.36;102169.13;10456190;28;20190;-82
2023/05/24 10:54:18;;;;;;;10.85;5.32;;;;;;;17.79;70.06;102147.81;10466722;28;20514;-81
2023/05/24 10:59:23;;;;;;;12.15;5.63;;;;;;;16.53;75.59;102162.09;10501796;28;20039;-81
2023/05/24 11:04:24;;;;;;;11.23;5.00;;;;;;;16.02;76.04;102157.16;10501450;28;20043;-81
2023/05/24 11:09:26;;;;;;;13.55;5.00;;;;;;;15.52;80.46;102159.22;10478566;28;20365;-80
2023/05/24 11:14:28;;;;;;;32.22;5.30;;;;;;;15.11;88.68;102164.28;10451429;28;20059;-80
2023/05/24 11:19:32;;;;;;;9.00;4.50;;;;;;;14.83;86.59;102155.91;10406551;28;20033;-81
2023/05/24 11:24:32;;;;;;;13.10;3.92;;;;;;;15.02;92.96;102161.16;10471551;28;20101;-80
2023/05/24 11:29:39;;;;;;;14.45;4.80;;;;;;;15.32;91.01;102161.81;10451684;28;20151;-81
2023/05/24 11:34:40;;;;;;;9.48;4.93;;;;;;;15.43;89.63;102158.78;10454785;28;20052;-81
2023/05/24 11:39:41;;;;;;;14.13;5.07;;;;;;;15.12;87.24;102161.72;10428265;28;20037;-80
2023/05/24 11:44:42;;;;;;;9.70;5.00;;;;;;;14.90;93.99;102162.34;10428327;28;20048;-80
2023/05/24 11:49:42;;;;;;;13.52;5.85;;;;;;;14.85;97.02;102160.34;10466841;28;20548;-79
2023/05/24 11:54:42;;;;;;;18.75;7.53;;;;;;;14.76;99.79;102155.50;10467112;28;20136;-79
2023/05/24 11:59:43;;;;;;;33.78;7.53;;;;;;;14.68;100.00;102148.06;10480139;28;20075;-79
2023/05/24 12:04:44;;;;;;;27.38;7.63;;;;;;;14.76;100.00;102151.13;10454375;28;20535;-80
2023/05/24 12:09:45;;;;;;;13.93;5.43;;;;;;;14.71;100.00;102152.63;10484535;28;20476;-80
2023/05/24 12:14:45;;;;;;;19.77;5.65;;;;;;;15.11;100.00;102154.63;10482033;28;20056;-80
2023/05/24 12:19:48;;;;;;;20.67;4.82;;;;;;;15.53;100.00;102161.91;10484079;28;20119;-80
2023/05/24 12:24:49;;;;;;;16.15;6.55;;;;;;;15.57;100.00;102153.31;10482453;28;20040;-81
2023/05/24 12:29:50;;;;;;;16.85;6.07;;;;;;;15.98;97.51;102140.28;10483249;28;20039;-81
2023/05/24 12:34:50;;;;;;;12.48;5.03;;;;;;;17.14;97.37;102138.19;10489322;28;20031;-81
2023/05/24 12:39:50;;;;;;;13.18;5.68;;;;;;;19.32;88.72;102139.03;10489372;28;20867;-81
2023/05/24 12:44:53;;;;;;;15.23;4.80;;;;;;;21.71;74.58;102129.47;10473807;28;20123;-80
2023/05/24 12:49:53;;;;;;;12.88;5.95;;;;;;;20.88;67.69;102128.38;10488833;28;20045;-80
2023/05/24 12:54:54;;;;;;;7.95;5.03;;;;;;;21.04;64.56;102105.72;10529526;28;20066;-80
2023/05/24 12:59:54;;;;;;;8.37;4.67;;;;;;;21.30;68.57;102116.97;10532961;28;20518;-79
2023/05/24 13:04:55;;;;;;;14.30;4.37;;;;;;;23.22;64.00;102110.84;10530637;28;20063;-80
2023/05/24 13:09:55;;;;;;;27.10;6.93;;;;;;;22.60;59.76;102100.09;10529017;28;20066;-79
2023/05/24 13:14:56;;;;;;;12.77;5.70;;;;;;;20.24;61.97;102105.47;10530202;28;20040;-79
2023/05/24 13:19:58;;;;;;;11.18;5.10;;;;;;;17.87;71.16;102119.88;10532144;28;20101;-80
2023/05/24 13:24:58;;;;;;;14.23;5.25;;;;;;;16.44;81.69;102119.41;10495493;28;20032;-80
2023/05/24 13:29:59;;;;;;;32.72;4.90;;;;;;;15.89;91.56;102118.75;10530950;28;20442;-80
2023/05/24 13:34:59;;;;;;;18.40;4.93;;;;;;;16.23;86.61;102115.00;10531978;28;20112;-80
2023/05/24 13:40:00;;;;;;;15.32;5.20;;;;;;;16.21;88.12;102118.38;10530200;28;20119;-80
2023/05/24 13:45:02;;;;;;;12.77;4.65;;;;;;;15.93;85.92;102109.22;10435016;28;20068;-82
2023/05/24 13:50:03;;;;;;;;;;;;;;;15.56;87.10;102108.41;10479076;28;20131;-78
2023/05/24 13:55:04;;;;;;;11.88;6.13;;;;;;;15.26;91.13;102114.03;10447540;28;19924;-78
2023/05/24 14:00:08;;;;;;;13.07;5.97;;;;;;;15.05;92.11;102113.88;10495442;28;20490;-78
2023/05/24 14:05:08;;;;;;;13.13;4.18;;;;;;;14.87;90.11;102117.41;10485805;28;20506;-78
2023/05/24 14:10:10;;;;;;;11.73;5.82;;;;;;;14.74;88.38;102112.34;10486005;28;20036;-78
2023/05/24 14:15:10;;;;;;;17.40;4.20;;;;;;;14.85;90.12;102107.63;10486077;28;20473;-78
2023/05/24 14:20:11;;;;;;;11.57;4.63;;;;;;;15.07;92.22;102112.22;10483114;28;20255;-78
2023/05/24 14:25:12;;;;;;;14.88;4.38;;;;;;;15.22;92.32;102106.78;10460290;28;20156;-78
2023/05/24 14:30:13;;;;;;;9.52;4.43;;;;;;;15.17;89.79;102105.66;10482457;28;20515;-78
2023/05/24 14:35:14;;;;;;;15.57;4.63;;;;;;;15.19;92.06;102112.81;10490511;28;20051;-79
2023/05/24 14:40:14;;;;;;;7.95;3.88;;;;;;;15.49;90.22;102116.88;10484994;28;20051;-79
2023/05/24 14:45:15;;;;;;;18.48;7.15;;;;;;;15.67;92.22;102125.66;10469850;28;20037;-78
2023/05/24 14:50:16;;;;;;;10.07;4.15;;;;;;;15.96;90.08;102115.56;10482837;28;20112;-79
2023/05/24 14:55:17;;;;;;;11.90;4.03;;;;;;;16.23;89.88;102115.00;10477302;28;20036;-79
2023/05/24 15:00:18;;;;;;;10.57;3.45;;;;;;;16.60;90.93;102120.97;10483437;28;20036;-79
2023/05/24 15:05:18;;;;;;;14.18;5.25;;;;;;;16.87;89.47;102122.97;10486006;28;20492;-78
2023/05/24 15:10:19;;;;;;;14.13;4.97;;;;;;;16.77;91.70;102110.19;10490921;28;20045;-78
2023/05/24 15:15:21;;;;;;;19.55;7.55;;;;;;;16.46;90.85;102115.09;10484321;28;20782;-78
2023/05/24 15:20:21;;;;;;;;;;;;;;;16.32;92.96;102108.31;10439834;28;20167;-78
2023/05/24 15:25:22;;;;;;;11.45;4.45;;;;;;;16.33;88.88;102116.28;10440937;28;19925;-78
2023/05/24 15:30:23;;;;;;;9.98;5.22;;;;;;;16.05;92.28;102115.06;10424619;28;20137;-78
2023/05/24 15:35:24;;;;;;;23.88;7.03;;;;;;;16.25;89.17;102109.75;10493814;28;20094;-79
2023/05/24 15:40:25;;;;;;;12.27;3.90;;;;;;;16.38;93.05;102109.47;10481694;28;20054;-80
2023/05/24 15:45:25;;;;;;;15.48;4.13;;;;;;;16.52;84.49;102104.78;10469736;28;20040;-79
2023/05/24 15:50:26;;;;;;;21.00;6.03;;;;;;;16.58;90.45;102098.84;10448920;28;20037;-80
2023/05/24 15:55:27;;;;;;;8.10;3.67;;;;;;;16.61;90.62;102103.38;10471864;28;20044;-79
2023/05/24 16:00:27;;;;;;;10.90;3.95;;;;;;;16.60;91.67;102097.16;10449526;28;20064;-80
2023/05/24 16:05:28;;;;;;;7.53;3.60;;;;;;;16.85;88.27;102084.97;10479841;28;20032;-79
2023/05/24 16:10:29;;;;;;;9.35;5.00;;;;;;;16.86;84.64;102089.44;10493194;28;20135;-80
2023/05/24 16:15:32;;;;;;;10.27;3.85;;;;;;;17.00;85.08;102087.41;10455196;28;20040;-79
2023/05/24 16:20:32;;;;;;;17.42;5.65;;;;;;;16.80;87.77;102078.59;10491220;28;20082;-79
2023/05/24 16:25:33;;;;;;;11.45;4.60;;;;;;;16.55;88.96;102083.78;10489199;28;20076;-80
2023/05/24 16:30:35;;;;;;;15.02;5.55;;;;;;;16.42;91.17;102071.78;10490291;28;20044;-80
2023/05/24 16:35:35;;;;;;;;;;;;;;;16.34;92.57;102072.28;10491372;28;20127;-79
2023/05/24 16:40:36;;;;;;;11.17;4.30;;;;;;;16.34;89.73;102070.53;10489880;28;19920;-79
2023/05/24 16:45:36;;;;;;;10.55;4.00;;;;;;;16.40;92.18;102056.69;10491794;28;20344;-80
2023/05/24 16:50:37;;;;;;;24.58;9.40;;;;;;;16.66;91.10;102052.50;10470523;28;20048;-80
2023/05/24 16:55:37;;;;;;;16.65;5.20;;;;;;;16.82;89.46;102053.13;10481732;28;20036;-80
2023/05/24 17:00:38;;;;;;;9.70;3.78;;;;;;;16.94;90.56;102048.34;10472310;28;20079;-80
2023/05/24 17:05:38;;;;;;;7.28;5.05;;;;;;;17.03;89.55;102045.22;10488906;28;20131;-79
2023/05/24 17:10:41;;;;;;;16.02;5.07;;;;;;;16.91;87.99;102040.28;10451555;28;20109;-80
2023/05/24 17:15:42;;;;;;;12.25;4.53;;;;;;;16.91;90.52;102050.84;10447995;28;20537;-80
2023/05/24 17:20:42;;;;;;;11.00;4.47;;;;;;;16.82;90.23;102050.50;10463416;28;20044;-80
2023/05/24 17:25:43;;;;;;;11.10;4.18;;;;;;;16.71;85.98;102052.72;10489605;28;20108;-80
2023/05/24 17:30:43;;;;;;;9.05;4.60;;;;;;;16.54;86.43;102058.19;10487628;28;20119;-82
2023/05/24 17:35:44;;;;;;;11.32;4.45;;;;;;;16.27;87.00;102065.81;10466502;28;20044;-82
2023/05/24 17:40:45;;;;;;;12.73;3.88;;;;;;;16.07;86.93;102065.84;10472169;28;20116;-82
2023/05/24 17:45:45;;;;;;;8.45;4.85;;;;;;;15.75;88.52;102069.66;10481686;28;20047;-81
2023/05/24 17:50:46;;;;;;;7.28;4.53;;;;;;;15.54;86.98;102092.47;10448366;28;20071;-81
2023/05/24 17:55:47;;;;;;;7.30;3.38;;;;;;;15.26;88.44;102091.19;10492736;28;20043;-81
2023/05/24 18:00:47;;;;;;;10.18;4.03;;;;;;;15.16;89.33;102094.19;10485584;28;20053;-83
2023/05/24 18:05:48;;;;;;;10.77;2.90;;;;;;;15.07;87.96;102086.75;10477024;28;20455;-82
2023/05/24 18:10:48;;;;;;;18.58;6.28;;;;;;;15.02;93.17;102090.00;10487056;28;20068;-83
2023/05/24 18:15:49;;;;;;;11.95;4.43;;;;;;;14.93;94.76;102087.81;10487866;28;20032;-82
2023/05/24 18:20:50;;;;;;;15.38;4.63;;;;;;;14.77;99.21;102088.78;10445336;28;20043;-82
2023/05/24 18:25:51;;;;;;;6.80;4.23;;;;;;;14.67;98.90;102084.75;10445398;28;20044;-82
2023/05/24 18:30:51;;;;;;;11.27;3.53;;;;;;;14.59;100.00;102084.34;10479902;28;20291;-82
2023/05/24 18:35:52;;;;;;;10.10;3.97;;;;;;;14.54;100.00;102089.41;10445553;28;20064;-82
2023/05/24 18:40:52;;;;;;;10.05;4.82;;;;;;;14.44;100.00;102091.47;10445099;28;20119;-81
2023/05/24 18:45:53;;;;;;;8.80;3.97;;;;;;;14.34;100.00;102096.28;10475860;28;20481;-80
2023/05/24 18:50:54;;;;;;;9.13;3.40;;;;;;;14.23;100.00;102092.16;10446126;28;20045;-82
2023/05/24 18:55:54;;;;;;;11.15;4.25;;;;;;;14.07;100.00;102099.25;10444853;28;20053;-82
2023/05/24 19:00:55;;;;;;;9.60;3.65;;;;;;;13.95;100.00;102101.25;10448624;28;20177;-81
2023/05/24 19:05:55;;;;;;;12.10;4.20;;;;;;;13.78;100.00;102102.97;10468521;28;20116;-82
2023/05/24 19:10:56;;;;;;;13.65;4.20;;;;;;;13.59;100.00;102101.06;10483617;28;20123;-82
2023/05/24 19:15:59;;;;;;;13.02;4.07;;;;;;;13.37;100.00;102110.34;10484512;28;20124;-83
2023/05/24 19:20:59;;;;;;;16.85;4.97;;;;;;;13.18;100.00;102117.19;10457919;28;20041;-82
2023/05/24 19:26:00;;;;;;;9.82;4.90;;;;;;;13.10;100.00;102121.09;10459084;28;20179;-82
2023/05/24 19:31:01;;;;;;;9.75;3.30;;;;;;;12.98;100.00;102129.22;10470167;28;20123;-82
2023/05/24 19:36:02;;;;;;;6.95;3.47;;;;;;;12.92;100.00;102129.75;10477383;28;20111;-83
2023/05/24 19:41:02;;;;;;;9.80;3.67;;;;;;;12.86;100.00;102139.00;10435547;28;20041;-82
2023/05/24 19:46:05;;;;;;;14.82;5.60;;;;;;;12.80;100.00;102143.91;10417678;28;20045;-82
2023/05/24 19:51:06;;;;;;;13.77;3.75;;;;;;;12.62;100.00;102153.38;10430876;28;20047;-82
2023/05/24 19:56:07;;;;;;;14.52;4.93;;;;;;;12.36;100.00;102158.78;10439182;28;20051;-83
2023/05/24 20:01:07;;;;;;;10.43;3.92;;;;;;;12.15;100.00;102156.66;10431256;28;20036;-83
2023/05/24 20:06:08;;;;;;;14.20;4.68;;;;;;;11.98;100.00;102166.97;10441284;28;20131;-82
2023/05/24 20:11:08;;;;;;;15.35;4.90;;;;;;;11.67;100.00;102170.28;10440168;28;20120;-80
2023/05/24 20:16:09;;;;;;;16.90;5.55;;;;;;;11.29;100.00;102172.25;10406941;28;20094;-85
2023/05/24 20:21:10;;;;;;;12.23;4.65;;;;;;;10.97;100.00;102172.72;10483994;28;20126;-83
2023/05/24 20:26:10;;;;;;;22.17;7.05;;;;;;;10.85;100.00;102180.66;10470192;28;20044;-84
2023/05/24 20:31:11;;;;;;;12.20;5.28;;;;;;;10.60;100.00;102183.31;10481729;28;20064;-84
2023/05/24 20:36:13;;;;;;;14.30;4.70;;;;;;;10.26;100.00;102192.34;10515590;28;20067;-81
2023/05/24 20:41:14;;;;;;;20.80;6.70;;;;;;;9.95;100.00;102198.00;10479364;28;20040;-83
2023/05/24 20:46:15;;;;;;;14.95;6.55;;;;;;;9.76;100.00;102191.47;10481623;28;20047;-83
2023/05/24 20:51:16;;;;;;;14.20;4.65;;;;;;;9.59;100.00;102190.22;10436174;28;20039;-83
2023/05/24 20:56:16;;;;;;;16.73;6.93;;;;;;;9.55;100.00;102199.56;10438427;28;20531;-83
2023/05/24 21:01:18;;;;;;;12.38;5.15;;;;;;;9.50;100.00;102203.53;10408219;28;20473;-82
2023/05/24 21:06:21;;;;;;;11.30;5.60;;;;;;;9.37;100.00;102200.81;10426008;28;20072;-83
2023/05/24 21:11:22;;;;;;;11.27;5.13;;;;;;;9.09;100.00;102207.50;10437471;28;20049;-83
2023/05/24 21:16:23;;;;;;;14.77;6.88;;;;;;;8.95;100.00;102215.97;10486811;28;20480;-82
2023/05/24 21:21:23;;;;;;;11.98;5.28;;;;;;;8.85;100.00;102224.84;10487904;28;20776;-82
2023/05/24 21:26:25;;;;;;;17.42;4.07;;;;;;;8.72;100.00;102224.69;10487840;28;20552;-82
2023/05/24 21:31:25;;;;;;;14.70;6.43;;;;;;;8.60;100.00;102229.84;10482935;28;20037;-83
2023/05/24 21:36:26;;;;;;;14.93;5.72;;;;;;;8.35;100.00;102233.13;10467543;28;20064;-82
2023/05/24 21:41:26;;;;;;;9.73;4.63;;;;;;;8.26;100.00;102245.44;10487110;28;20889;-82
2023/05/24 21:46:28;;;;;;;18.92;5.70;;;;;;;8.36;100.00;102248.91;10476812;28;20936;-83
2023/05/24 21:51:28;;;;;;;13.80;5.03;;;;;;;8.36;100.00;102247.97;10488885;28;20036;-83
2023/05/24 21:56:29;;;;;;;13.32;5.57;;;;;;;8.20;100.00;102252.00;10488682;28;20032;-83
2023/05/24 22:01:29;;;;;;;10.82;4.70;;;;;;;7.85;100.00;102247.47;10484458;28;20445;-83
2023/05/24 22:06:30;;;;;;;7.75;4.78;;;;;;;7.60;100.00;102255.88;10482545;28;20127;-84
2023/05/24 22:11:31;;;;;;;16.17;5.53;;;;;;;7.40;100.00;102259.47;10444940;28;20460;-83
2023/05/24 22:16:32;;;;;;;7.83;3.27;;;;;;;7.19;100.00;102266.41;10476026;28;20508;-83
2023/05/24 22:21:32;;;;;;;13.98;6.75;;;;;;;7.01;100.00;102269.28;10486777;28;20123;-83
2023/05/24 22:26:33;;;;;;;16.15;5.97;;;;;;;7.10;100.00;102283.84;10485704;28;20108;-83
2023/05/24 22:31:34;;;;;;;18.38;7.10;;;;;;;7.35;100.00;102294.66;10474490;28;20041;-83
2023/05/24 22:36:36;;;;;;;13.03;5.87;;;;;;;7.38;100.00;102293.97;10453632;28;20040;-83
2023/05/24 22:41:37;;;;;;;11.30;7.05;;;;;;;7.38;100.00;102294.91;10485175;28;20396;-83
2023/05/24 22:46:37;;;;;;;13.27;4.47;;;;;;;7.29;100.00;102295.03;10485143;28;20056;-83